ADDS METAR Data INFO
IDs: Format: Raw Decoded Include TAF

Data at: 2039 UTC 20 Jul 2018

KMTH 201953Z AUTO VRB03KT 10SM FEW006 BKN047 33/23 A3000 RMK AO2 RAB25E35 SLP159 P0000 T03330233
KMTH 201939Z AUTO 25005KT 10SM FEW007 BKN048 OVC060 32/24 A3001 RMK AO2 RAB25E35 P0000 T03170239
KMTH 201853Z AUTO 31004KT 10SM FEW027 SCT042 BKN049 31/24 A3001 RMK AO2 RAB27E38 SLP161 P0000 T03110239
KMTH 201753Z AUTO VRB04KT 10SM BKN035 BKN055 32/24 A3002 RMK AO2 SLP166 T03220244 10344 20294 58004
KMTH 201653Z AUTO VRB04KT 10SM CLR 33/24 A3003 RMK AO2 SLP168 T03330239
KMTH 201553Z AUTO VRB04KT 10SM CLR 32/24 A3004 RMK AO2 SLP172 T03170239
KMTH 201453Z AUTO VRB03KT 10SM CLR 32/24 A3004 RMK AO2 SLP170 T03170239 51009
KMTH 201353Z AUTO 00000KT 10SM CLR 31/24 A3003 RMK AO2 SLP168 T03110239
KMTH 201253Z AUTO 00000KT 10SM CLR 31/23 A3002 RMK AO2 SLP165 T03060233
KMTH 201153Z AUTO 21003KT 10SM CLR 29/23 A3001 RMK AO2 SLP161 T02940228 10294 20283 53010
KMTH 201053Z AUTO 19005KT 10SM CLR 28/23 A2998 RMK AO2 SLP152 T02830233
KMTH 200953Z AUTO 20003KT 10SM CLR 29/23 A2998 RMK AO2 SLP151 T02890233
KMTH 200853Z AUTO 18005KT 10SM FEW028 29/23 A2998 RMK AO2 SLP151 T02890233 57009
KMTH 200753Z AUTO VRB04KT 10SM SCT029 29/23 A2999 RMK AO2 SLP154 T02940233
KMTH 200653Z AUTO VRB04KT 10SM FEW030 29/23 A3000 RMK AO2 SLP157 T02940233
KMTH 200553Z AUTO VRB03KT 10SM CLR 29/23 A3000 RMK AO2 SLP160 T02940228 10306 20294 58004
KMTH 200453Z AUTO 00000KT 10SM CLR 29/23 A3001 RMK AO2 SLP162 T02940233 403560283
KMTH 200353Z AUTO VRB03KT 10SM CLR 29/23 A3002 RMK AO2 SLP166 T02940233
KMTH 200253Z AUTO 00000KT 10SM CLR 29/23 A3002 RMK AO2 SLP164 T02940228 53015
KMTH 200153Z AUTO 00000KT 10SM SCT031 30/23 A3001 RMK AO2 SLP160 T03000233
KMTH 200053Z AUTO 04003KT 10SM FEW031 30/23 A2998 RMK AO2 SLP151 T03000233
KMTH 192353Z AUTO VRB03KT 10SM CLR 31/23 A2997 RMK AO2 SLP149 T03060228 10356 20306 55000
KMTH 192253Z AUTO 21004KT 10SM FEW035 32/23 A2997 RMK AO2 SLP147 T03170228
KMTH 192153Z AUTO VRB05KT 10SM FEW036 33/22 A2997 RMK AO2 SLP147 T03280222
KMTH 192053Z AUTO VRB05KT 10SM BKN037 33/23 A2997 RMK AO2 SLP149 T03330228 56013
KMTH 191953Z AUTO 00000KT 10SM FEW039 33/22 A2998 RMK AO2 SLP153 T03330222
KMTH 191853Z AUTO 29006KT 10SM CLR 34/21 A3000 RMK AO2 SLP157 T03440211
KMTH 191753Z AUTO VRB04KT 10SM BKN033 34/23 A3001 RMK AO2 SLP162 T03390233 10356 20300 58010
KMTH 191653Z AUTO 20007KT 170V230 10SM SCT030 BKN036 34/23 A3003 RMK AO2 SLP167 T03390233
KMTH 191553Z AUTO VRB04KT 10SM CLR 34/24 A3004 RMK AO2 SLP172 T03390239
KMTH 191453Z AUTO 19004KT 10SM FEW026 33/24 A3004 RMK AO2 SLP172 T03280239 51012
KMTH 191353Z AUTO 20005KT 10SM CLR 32/24 A3004 RMK AO2 SLP171 T03220239
KMTH 191253Z AUTO 17006KT 10SM CLR 31/23 A3003 RMK AO2 SLP168 T03060228
KMTH 191153Z AUTO VRB04KT 10SM CLR 30/23 A3001 RMK AO2 SLP161 T03000228 10300 20283 53004
KMTH 191053Z AUTO 20003KT 10SM SCT026 BKN034 28/23 A2999 RMK AO2 SLP155 T02830233
KMTH 190953Z AUTO 17004KT 10SM SCT026 SCT032 28/23 A2999 RMK AO2 SLP156 T02830233
KMTH 190853Z AUTO 18004KT 10SM FEW028 29/23 A3000 RMK AO2 SLP157 T02890228 56007